Time;durP1;ratioP1;P1;durP2;ratioP2;P2;SDS_P1;SDS_P2;PMS_P1;PMS_P2;Temp;Humidity;BMP_temperature;BMP_pressure;BME280_temperature;BME280_humidity;BME280_pressure;Samples;Min_cycle;Max_cycle;Signal;HPM_P1;HPM_P2
2023/12/02 00:00:59;;;;;;;;;;;;;;;-2.56;100.00;101057.88;5004457;28;20604;-82
2023/12/02 00:03:25;;;;;;;;;;;;;;;-2.54;100.00;101057.88;4991854;28;20390;-82
2023/12/02 00:05:50;;;;;;;;;;;;;;;-2.49;100.00;101048.09;4998884;28;20831;-82
2023/12/02 00:08:15;;;;;;;;;;;;;;;-2.52;100.00;101045.56;5017667;28;19960;-82
2023/12/02 00:10:40;;;;;;;;;;;;;;;-2.50;100.00;101056.03;5009768;28;20410;-82
2023/12/02 00:13:05;;;;;;;;;;;;;;;-2.48;100.00;101059.50;5009902;28;20419;-84
2023/12/02 00:15:31;;;;;;;;;;;;;;;-2.46;100.00;101049.81;5012424;28;19925;-82
2023/12/02 00:17:56;;;;;;;;;;;;;;;-2.47;100.00;101050.72;5012848;28;19980;-83
2023/12/02 00:20:21;;;;;;;;;;;;;;;-2.45;100.00;101048.91;4994816;28;20007;-82
2023/12/02 00:22:46;;;;;;;;;;;;;;;-2.51;100.00;101049.88;5006793;28;19921;-82
2023/12/02 00:25:12;;;;;;;;;;;;;;;-2.53;100.00;101054.34;4995727;28;19933;-84
2023/12/02 00:27:37;;;;;;;;;;;;;;;-2.54;100.00;101047.34;5009386;28;19964;-84
2023/12/02 00:30:02;;;;;;;;;;;;;;;-2.53;100.00;101046.44;5009837;28;20012;-83
2023/12/02 00:32:27;;;;;;;;;;;;;;;-2.57;100.00;101044.78;5010885;28;19921;-82
2023/12/02 00:34:52;;;;;;;;;;;;;;;-2.59;100.00;101036.91;4992272;28;20016;-83
2023/12/02 00:37:18;;;;;;;;;;;;;;;-2.65;100.00;101031.78;5012917;28;19917;-81
2023/12/02 00:39:43;;;;;;;;;;;;;;;-2.60;100.00;101040.44;5009893;28;20657;-82
2023/12/02 00:42:08;;;;;;;;;;;;;;;-2.63;100.00;101039.63;4993959;28;20376;-82
2023/12/02 00:44:33;;;;;;;;;;;;;;;-2.62;100.00;101036.09;5009630;28;19931;-82
2023/12/02 00:46:58;;;;;;;;;;;;;;;-2.61;100.00;101036.06;5010771;28;19921;-83
2023/12/02 00:49:24;;;;;;;;;;;;;;;-2.66;100.00;101032.69;4995666;28;19960;-83
2023/12/02 00:51:49;;;;;;;;;;;;;;;-2.75;100.00;101033.69;4991873;28;20015;-83
2023/12/02 00:54:14;;;;;;;;;;;;;;;-2.77;100.00;101030.22;5009786;28;19927;-84
2023/12/02 00:56:39;;;;;;;;;;;;;;;-2.73;100.00;101038.94;5008514;28;19921;-84
2023/12/02 00:59:04;;;;;;;;;;;;;;;-2.78;100.00;101036.38;5012381;28;19921;-83
2023/12/02 01:01:30;;;;;;;;;;;;;;;-2.81;100.00;101039.09;5009867;28;19921;-83
2023/12/02 01:03:55;;;;;;;;;;;;;;;-2.86;100.00;101038.31;5006476;28;20035;-83
2023/12/02 01:06:20;;;;;;;;;;;;;;;-2.89;100.00;101041.00;4996176;28;19930;-82
2023/12/02 01:08:46;;;;;;;;;;;;;;;-2.83;100.00;101034.75;4990253;28;19921;-83
2023/12/02 01:11:11;;;;;;;;;;;;;;;-2.88;100.00;101038.31;4998525;28;19925;-82
2023/12/02 01:13:36;;;;;;;;;;;;;;;-2.91;100.00;101038.38;5009078;28;19932;-83
2023/12/02 01:16:01;;;;;;;;;;;;;;;-2.99;100.00;101027.16;5008252;28;20008;-82
2023/12/02 01:18:26;;;;;;;;;;;;;;;-2.98;100.00;101035.91;5006824;28;19974;-83
2023/12/02 01:20:52;;;;;;;;;;;;;;;-3.06;100.00;101036.94;5011900;28;20364;-82
2023/12/02 01:23:17;;;;;;;;;;;;;;;-3.10;100.00;101037.00;4995654;28;19921;-82
2023/12/02 01:25:42;;;;;;;;;;;;;;;-3.13;100.00;101045.81;5007635;28;19999;-83
2023/12/02 01:28:07;;;;;;;;;;;;;;;-3.13;100.00;101044.91;4993338;28;20060;-83
2023/12/02 01:30:33;;;;;;;;;;;;;;;-3.17;100.00;101052.00;4998075;28;19921;-83
2023/12/02 01:32:58;;;;;;;;;;;;;;;-3.17;100.00;101050.22;5004450;28;20345;-83
2023/12/02 01:35:23;;;;;;;;;;;;;;;-3.21;100.00;101059.06;5009708;28;20111;-83
2023/12/02 01:37:48;;;;;;;;;;;;;;;-3.23;100.00;101052.09;5008642;28;19960;-83
2023/12/02 01:40:14;;;;;;;;;;;;;;;-3.40;100.00;101053.25;4996297;28;19925;-83
2023/12/02 01:42:39;;;;;;;;;;;;;;;-3.35;100.00;101063.69;4996721;28;20600;-82
2023/12/02 01:45:04;;;;;;;;;;;;;;;-3.32;100.00;101067.13;5010596;28;20394;-82
2023/12/02 01:47:29;;;;;;;;;;;;;;;-3.37;100.00;101057.59;5011048;28;19928;-83
2023/12/02 01:49:55;;;;;;;;;;;;;;;-3.35;100.00;101072.44;5009012;28;19921;-82
2023/12/02 01:52:20;;;;;;;;;;;;;;;-3.36;100.00;101075.06;4992886;28;20326;-82
2023/12/02 01:54:46;;;;;;;;;;;;;;;-3.37;100.00;101076.84;5006042;28;19920;-83
2023/12/02 01:57:11;;;;;;;;;;;;;;;-3.32;100.00;101077.66;5010382;28;19925;-83
2023/12/02 01:59:37;;;;;;;;;;;;;;;-3.60;100.00;101032.56;4990170;28;19921;-83
2023/12/02 02:02:02;;;;;;;;;;;;;;;-3.39;100.00;101070.75;5010999;28;19928;-82
2023/12/02 02:04:28;;;;;;;;;;;;;;;-3.37;100.00;101073.34;5008677;28;19964;-82
2023/12/02 02:06:53;;;;;;;;;;;;;;;-3.37;100.00;101071.59;5006769;28;19963;-85
2023/12/02 02:09:18;;;;;;;;;;;;;;;-3.39;100.00;101073.38;5007746;28;20214;-82
2023/12/02 02:11:43;;;;;;;;;;;;;;;-3.42;100.00;101067.28;5008685;28;19921;-83
2023/12/02 02:14:08;;;;;;;;;;;;;;;-3.49;100.00;101071.78;5007131;28;20209;-84
2023/12/02 02:16:34;;;;;;;;;;;;;;;-3.50;100.00;101063.03;5009282;28;19968;-82
2023/12/02 02:18:59;;;;;;;;;;;;;;;-3.56;100.00;101072.75;5003947;28;20007;-82
2023/12/02 02:21:24;;;;;;;;;;;;;;;-3.54;100.00;101066.59;5008096;28;19913;-82
2023/12/02 02:23:49;;;;;;;;;;;;;;;-3.51;100.00;101063.06;5008935;28;19925;-83
2023/12/02 02:26:15;;;;;;;;;;;;;;;-3.49;100.00;101069.16;4992955;28;19940;-82
2023/12/02 02:28:40;;;;;;;;;;;;;;;-3.65;100.00;101026.53;4992219;28;19932;-82
2023/12/02 02:31:05;;;;;;;;;;;;;;;-3.41;100.00;101071.66;5009187;28;20495;-83
2023/12/02 02:33:32;;;;;;;;;;;;;;;-3.43;100.00;101066.44;5008276;28;19932;-82
2023/12/02 02:35:57;;;;;;;;;;;;;;;-3.43;100.00;101071.69;5007959;28;19943;-82
2023/12/02 02:38:22;;;;;;;;;;;;;;;-3.41;100.00;101084.78;5007429;28;19925;-82
2023/12/02 02:40:47;;;;;;;;;;;;;;;-3.48;100.00;101070.88;5003403;28;19980;-82
2023/12/02 02:43:13;;;;;;;;;;;;;;;-3.48;100.00;101066.53;4990149;28;19944;-82
2023/12/02 02:45:38;;;;;;;;;;;;;;;-3.43;100.00;101071.69;4996441;28;19921;-82
2023/12/02 02:48:03;;;;;;;;;;;;;;;-3.41;100.00;101072.53;5007874;28;19925;-82
2023/12/02 02:50:28;;;;;;;;;;;;;;;-3.43;100.00;101066.44;5007588;28;19921;-82
2023/12/02 02:52:54;;;;;;;;;;;;;;;-3.42;100.00;101077.78;5006984;28;19921;-82
2023/12/02 02:55:19;;;;;;;;;;;;;;;-3.42;100.00;101064.66;4994024;28;20245;-82
2023/12/02 02:57:44;;;;;;;;;;;;;;;-3.39;100.00;101081.25;4993486;28;20631;-82
2023/12/02 03:00:11;;;;;;;;;;;;;;;-3.36;100.00;101080.31;4993156;28;19917;-81
2023/12/02 03:02:37;;;;;;;;;;;;;;;-3.38;100.00;101077.72;4981754;28;19975;-82
2023/12/02 03:05:02;;;;;;;;;;;;;;;-3.36;100.00;101085.56;5007054;28;20303;-82
2023/12/02 03:07:27;;;;;;;;;;;;;;;-3.30;100.00;101082.84;5005406;28;19976;-81
2023/12/02 03:09:53;;;;;;;;;;;;;;;-3.33;100.00;101070.66;5004550;28;20294;-81
2023/12/02 03:12:18;;;;;;;;;;;;;;;-3.26;100.00;101081.03;5005128;28;20282;-81
2023/12/02 03:14:43;;;;;;;;;;;;;;;-3.23;100.00;101083.63;4987198;28;20343;-82
2023/12/02 03:17:08;;;;;;;;;;;;;;;-3.19;100.00;101088.81;5006260;28;20515;-82
2023/12/02 03:19:33;;;;;;;;;;;;;;;-3.14;100.00;101091.34;5006726;28;20441;-81
2023/12/02 03:21:59;;;;;;;;;;;;;;;-3.12;100.00;101091.31;5006735;28;20281;-82
2023/12/02 03:24:24;;;;;;;;;;;;;;;-3.03;100.00;101099.03;5004209;28;19925;-82
2023/12/02 03:26:50;;;;;;;;;;;;;;;-3.05;100.00;101093.84;5011895;28;20065;-81
2023/12/02 03:29:15;;;;;;;;;;;;;;;-3.08;100.00;101088.63;4995253;28;19975;-82
2023/12/02 03:31:40;;;;;;;;;;;;;;;-3.02;100.00;101106.03;4996212;28;19921;-82
2023/12/02 03:34:05;;;;;;;;;;;;;;;-3.01;100.00;101102.53;4998889;28;20018;-81
2023/12/02 03:36:30;;;;;;;;;;;;;;;-2.99;100.00;101106.00;5010440;28;19925;-81
2023/12/02 03:38:56;;;;;;;;;;;;;;;-3.00;100.00;101101.63;5004370;28;19983;-82
2023/12/02 03:41:21;;;;;;;;;;;;;;;-2.97;100.00;101103.31;4996794;28;20024;-81
2023/12/02 03:43:46;;;;;;;;;;;;;;;-2.99;100.00;101103.38;5013818;28;19996;-81
2023/12/02 03:46:11;;;;;;;;;;;;;;;-2.94;100.00;101117.28;5005920;28;19975;-82
2023/12/02 03:48:37;;;;;;;;;;;;;;;-2.91;100.00;101111.97;5010623;28;19996;-82
2023/12/02 03:51:02;;;;;;;;;;;;;;;-2.90;100.00;101107.59;5009483;28;19925;-82
2023/12/02 03:53:30;;;;;;;;;;;;;;;-2.89;100.00;101101.44;5013149;28;20359;-82
2023/12/02 03:55:55;;;;;;;;;;;;;;;-3.02;100.00;101104.25;5014204;28;19979;-81
2023/12/02 03:58:20;;;;;;;;;;;;;;;-2.92;100.00;101102.38;4994824;28;19979;-81
2023/12/02 04:00:46;;;;;;;;;;;;;;;-2.98;100.00;101107.72;5008586;28;19925;-81
2023/12/02 04:03:12;;;;;;;;;;;;;;;-3.02;100.00;101096.38;5011403;28;20157;-81
2023/12/02 04:05:37;;;;;;;;;;;;;;;-3.10;100.00;101092.16;5010949;28;19937;-81
2023/12/02 04:08:02;;;;;;;;;;;;;;;-3.07;100.00;101105.25;5010393;28;20007;-81
2023/12/02 04:10:27;;;;;;;;;;;;;;;-3.03;100.00;101107.78;5011585;28;19935;-81
2023/12/02 04:12:53;;;;;;;;;;;;;;;-3.03;100.00;101105.16;5010997;28;19917;-82
2023/12/02 04:15:18;;;;;;;;;;;;;;;-3.03;100.00;101114.81;4994327;28;19921;-82
2023/12/02 04:17:43;;;;;;;;;;;;;;;-3.02;100.00;101121.81;4995970;28;19921;-81
2023/12/02 04:20:09;;;;;;;;;;;;;;;-3.00;100.00;101112.13;5012139;28;19925;-82
2023/12/02 04:22:38;;;;;;;;;;;;;;;-2.99;100.00;101127.00;5007917;28;19925;-82
2023/12/02 04:25:04;;;;;;;;;;;;;;;-3.02;100.00;101125.28;5012763;28;20110;-81
2023/12/02 04:27:30;;;;;;;;;;;;;;;-3.03;100.00;101125.31;5007526;28;20357;-81
2023/12/02 04:29:55;;;;;;;;;;;;;;;-3.02;100.00;101135.78;4998412;28;19971;-81
2023/12/02 04:32:20;;;;;;;;;;;;;;;-2.98;100.00;101134.00;5009007;28;20356;-82
2023/12/02 04:34:45;;;;;;;;;;;;;;;-3.10;100.00;101134.19;5009065;28;20530;-81
2023/12/02 04:37:12;;;;;;;;;;;;;;;-3.06;100.00;101130.63;5004841;28;20099;-81
2023/12/02 04:39:37;;;;;;;;;;;;;;;-3.11;100.00;101140.34;5003307;28;19921;-81
2023/12/02 04:42:03;;;;;;;;;;;;;;;-3.11;100.00;101140.34;5006197;28;19932;-81
2023/12/02 04:44:28;;;;;;;;;;;;;;;-3.13;100.00;101128.97;5006893;28;19963;-82
2023/12/02 04:46:53;;;;;;;;;;;;;;;-3.20;100.00;101134.34;5019870;28;19921;-81
2023/12/02 04:49:18;;;;;;;;;;;;;;;-3.16;100.00;101136.00;4997037;28;19939;-81
2023/12/02 04:51:44;;;;;;;;;;;;;;;-3.23;100.00;101136.13;5007867;28;19931;-80
2023/12/02 04:54:10;;;;;;;;;;;;;;;-3.13;100.00;101135.13;5007951;28;19925;-80
2023/12/02 04:56:35;;;;;;;;;;;;;;;-3.19;100.00;101132.59;5007323;28;20474;-81
2023/12/02 04:59:01;;;;;;;;;;;;;;;-3.24;100.00;101127.41;5009079;28;20012;-81
2023/12/02 05:01:26;;;;;;;;;;;;;;;-3.16;100.00;101130.75;5010102;28;19921;-81
2023/12/02 05:03:51;;;;;;;;;;;;;;;-3.21;100.00;101151.00;5001990;28;19929;-81
2023/12/02 05:06:17;;;;;;;;;;;;;;;-3.21;100.00;101137.00;5011444;28;20043;-81
2023/12/02 05:08:44;;;;;;;;;;;;;;;-3.19;100.00;101145.72;4991517;28;19921;-81
2023/12/02 05:11:09;;;;;;;;;;;;;;;-3.20;100.00;101150.13;4997614;28;19921;-81
2023/12/02 05:13:34;;;;;;;;;;;;;;;-3.15;100.00;101147.41;5011276;28;19917;-81
2023/12/02 05:15:59;;;;;;;;;;;;;;;-3.18;100.00;101153.56;5011133;28;19932;-81
2023/12/02 05:18:25;;;;;;;;;;;;;;;-3.17;100.00;101151.81;5010134;28;20160;-81
2023/12/02 05:20:50;;;;;;;;;;;;;;;-3.17;100.00;101159.69;4991375;28;20375;-81
2023/12/02 05:23:15;;;;;;;;;;;;;;;-3.18;100.00;101163.22;4997381;28;20496;-81
2023/12/02 05:25:40;;;;;;;;;;;;;;;-3.21;100.00;101164.13;4992745;28;20475;-81
2023/12/02 05:28:06;;;;;;;;;;;;;;;-3.23;100.00;101163.28;5006466;28;19960;-81
2023/12/02 05:30:33;;;;;;;;;;;;;;;-3.25;100.00;101170.31;5003574;28;19971;-80
2023/12/02 05:32:58;;;;;;;;;;;;;;;-3.25;100.00;101164.19;5003799;28;20012;-80
2023/12/02 05:35:24;;;;;;;;;;;;;;;-3.23;100.00;101183.41;4990066;28;19937;-80
2023/12/02 05:37:50;;;;;;;;;;;;;;;-3.28;100.00;101169.47;4983982;28;20038;-80
2023/12/02 05:40:15;;;;;;;;;;;;;;;-3.32;100.00;101163.41;4999979;28;20375;-80
2023/12/02 05:42:41;;;;;;;;;;;;;;;-3.31;100.00;101163.38;5000952;28;19925;-80
2023/12/02 05:45:06;;;;;;;;;;;;;;;-3.38;100.00;101153.00;5001776;28;19929;-80
2023/12/02 05:47:31;;;;;;;;;;;;;;;-3.42;100.00;101161.81;5001664;28;19925;-80
2023/12/02 05:49:56;;;;;;;;;;;;;;;-3.49;100.00;101156.66;5006955;28;19959;-80
2023/12/02 05:52:22;;;;;;;;;;;;;;;-3.47;100.00;101156.63;5001815;28;19931;-80
2023/12/02 05:54:47;;;;;;;;;;;;;;;-3.52;100.00;101164.59;4998606;28;19924;-80
2023/12/02 05:57:12;;;;;;;;;;;;;;;-3.55;100.00;101159.38;5009251;28;19921;-80
2023/12/02 05:59:37;;;;;;;;;;;;;;;-3.52;100.00;101156.72;5011382;28;19984;-80
2023/12/02 06:02:03;;;;;;;;;;;;;;;-3.51;100.00;101168.94;5006873;28;20529;-80
2023/12/02 06:04:29;;;;;;;;;;;;;;;-3.51;100.00;101168.94;4990175;28;19933;-80
2023/12/02 06:06:55;;;;;;;;;;;;;;;-3.49;100.00;101172.41;5004138;28;19925;-80
2023/12/02 06:09:20;;;;;;;;;;;;;;;-3.45;100.00;101175.84;4995750;28;20406;-80
2023/12/02 06:11:45;;;;;;;;;;;;;;;-3.38;100.00;101184.50;4994787;28;19936;-80
2023/12/02 06:14:10;;;;;;;;;;;;;;;-3.35;100.00;101179.22;5006684;28;19948;-80
2023/12/02 06:16:36;;;;;;;;;;;;;;;-3.34;100.00;101178.31;4989933;28;20011;-80
2023/12/02 06:19:01;;;;;;;;;;;;;;;-3.34;100.00;101180.94;5010540;28;19925;-80
2023/12/02 06:21:26;;;;;;;;;;;;;;;-3.29;100.00;101194.00;5005606;28;19957;-80
2023/12/02 06:23:51;;;;;;;;;;;;;;;-3.31;100.00;101189.63;4984663;28;19947;-80
2023/12/02 06:26:16;;;;;;;;;;;;;;;-3.27;100.00;101186.97;5003515;28;19947;-80
2023/12/02 06:28:42;;;;;;;;;;;;;;;-3.24;100.00;101189.56;5002276;28;20394;-80
2023/12/02 06:31:13;;;;;;;;;;;;;;;-3.21;100.00;101194.78;4986528;28;20341;-80
2023/12/02 06:33:38;;;;;;;;;;;;;;;-3.19;100.00;101199.13;4985722;28;19996;-80
2023/12/02 06:36:04;;;;;;;;;;;;;;;-3.20;100.00;101197.41;5002353;28;20291;-80
2023/12/02 06:38:29;;;;;;;;;;;;;;;-3.23;100.00;101196.56;5001084;28;20346;-80
2023/12/02 06:40:55;;;;;;;;;;;;;;;-3.20;100.00;101201.75;4984552;28;20406;-80
2023/12/02 06:43:20;;;;;;;;;;;;;;;-3.24;100.00;101194.81;4985589;28;21367;-80
2023/12/02 06:45:45;;;;;;;;;;;;;;;-3.16;100.00;101209.56;5001772;28;19917;-80
2023/12/02 06:48:10;;;;;;;;;;;;;;;-3.18;100.00;101206.09;5001569;28;20042;-80
2023/12/02 06:50:35;;;;;;;;;;;;;;;-3.19;100.00;101209.63;5001970;28;19943;-80
2023/12/02 06:53:01;;;;;;;;;;;;;;;-3.16;100.00;101209.56;4980935;28;19932;-80
2023/12/02 06:55:27;;;;;;;;;;;;;;;-3.17;100.00;101212.22;4999538;28;19926;-80
2023/12/02 06:57:52;;;;;;;;;;;;;;;-3.12;100.00;101218.28;4985357;28;19921;-80
2023/12/02 07:00:18;;;;;;;;;;;;;;;-3.10;100.00;101223.50;4995605;28;19960;-80
2023/12/02 07:02:44;;;;;;;;;;;;;;;-3.08;100.00;101226.97;5002354;28;20342;-80
2023/12/02 07:05:09;;;;;;;;;;;;;;;-3.11;100.00;101227.91;5004011;28;20193;-80
2023/12/02 07:07:34;;;;;;;;;;;;;;;-3.13;100.00;101234.06;4988735;28;20630;-80
2023/12/02 07:09:59;;;;;;;;;;;;;;;-3.09;100.00;101238.38;4992248;28;19928;-80
2023/12/02 07:12:25;;;;;;;;;;;;;;;-3.17;100.00;101243.75;5003392;28;20394;-79
2023/12/02 07:14:50;;;;;;;;;;;;;;;-3.20;100.00;101247.31;4990982;28;20589;-79
2023/12/02 07:17:15;;;;;;;;;;;;;;;-3.23;100.00;101252.59;4985175;28;20338;-79
2023/12/02 07:19:40;;;;;;;;;;;;;;;-3.31;100.00;101250.03;4996640;28;20465;-79
2023/12/02 07:22:05;;;;;;;;;;;;;;;-3.26;100.00;101259.63;4996548;28;20593;-80
2023/12/02 07:24:31;;;;;;;;;;;;;;;-3.26;100.00;101272.75;4998552;28;20418;-80
2023/12/02 07:26:56;;;;;;;;;;;;;;;-3.25;100.00;101272.75;5002634;28;19925;-80
2023/12/02 07:29:21;;;;;;;;;;;;;;;-3.21;100.00;101279.72;5001642;28;19932;-80
2023/12/02 07:31:46;;;;;;;;;;;;;;;-3.18;100.00;101284.88;5002452;28;20431;-79
2023/12/02 07:34:12;;;;;;;;;;;;;;;-3.27;100.00;101282.41;4985524;28;20399;-80
2023/12/02 07:36:37;;;;;;;;;;;;;;;-3.06;100.00;101289.13;4983077;28;19964;-80
2023/12/02 07:39:02;;;;;;;;;;;;;;;-3.01;100.00;101282.03;4981451;28;20613;-80
2023/12/02 07:41:27;;;;;;;;;;;;;;;-2.97;100.00;101279.38;4999622;28;19970;-79
2023/12/02 07:43:52;;;;;;;;;;;;;;;-2.94;100.00;101281.94;4999222;28;20279;-80
2023/12/02 07:46:18;;;;;;;;;;;;;;;-2.88;100.00;101282.72;5003658;28;20431;-79
2023/12/02 07:48:43;;;;;;;;;;;;;;;-2.79;100.00;101286.13;5002172;28;20394;-79
2023/12/02 07:51:08;;;;;;;;;;;;;;;-2.68;100.00;101286.84;4994890;28;20367;-80
2023/12/02 07:53:33;;;;;;;;;;;;;;;-2.57;100.00;101297.19;4984620;28;19921;-80
2023/12/02 07:55:59;;;;;;;;;;;;;;;-2.49;100.00;101304.94;4984578;28;19998;-79
2023/12/02 07:58:24;;;;;;;;;;;;;;;-2.51;100.00;101299.69;4983827;28;20450;-79
2023/12/02 08:00:49;;;;;;;;;;;;;;;-2.54;100.00;101298.88;5002911;28;19924;-80
2023/12/02 08:03:14;;;;;;;;;;;;;;;-2.53;100.00;101298.00;4981815;28;19930;-80
2023/12/02 08:05:39;;;;;;;;;;;;;;;-2.50;100.00;101304.06;4980835;28;19972;-79
2023/12/02 08:08:05;;;;;;;;;;;;;;;-2.46;100.00;101304.91;4994366;28;19922;-80
2023/12/02 08:10:30;;;;;;;;;;;;;;;-2.49;100.00;101307.56;4983673;28;19932;-80
2023/12/02 08:12:55;;;;;;;;;;;;;;;-2.47;100.00;101304.00;5002732;28;19921;-80
2023/12/02 08:15:20;;;;;;;;;;;;;;;-2.40;100.00;101312.69;4990259;28;19932;-80
2023/12/02 08:17:46;;;;;;;;;;;;;;;-2.36;100.00;101318.75;5004957;28;19936;-80
2023/12/02 08:20:12;;;;;;;;;;;;;;;-2.26;100.00;101318.59;5009643;28;19954;-80
2023/12/02 08:22:37;;;;;;;;;;;;;;;-2.26;100.00;101323.00;5007748;28;19963;-80
2023/12/02 08:25:02;;;;;;;;;;;;;;;-2.19;100.00;101331.63;5008638;28;19921;-80
2023/12/02 08:27:27;;;;;;;;;;;;;;;-2.12;100.00;101334.13;5005774;28;19925;-80
2023/12/02 08:29:53;;;;;;;;;;;;;;;-2.19;100.00;101336.91;4989195;28;20386;-81
2023/12/02 08:32:18;;;;;;;;;;;;;;;-2.34;100.00;101340.66;4987352;28;19977;-80
2023/12/02 08:34:43;;;;;;;;;;;;;;;-2.55;100.00;101305.91;5001475;28;20378;-80
2023/12/02 08:37:08;;;;;;;;;;;;;;;-2.33;100.00;101335.34;5003228;28;19921;-80
2023/12/02 08:39:34;;;;;;;;;;;;;;;-2.28;100.00;101333.50;4984096;28;20286;-80
2023/12/02 08:41:59;;;;;;;;;;;;;;;-2.27;100.00;101337.03;4985520;28;20391;-80
2023/12/02 08:44:24;;;;;;;;;;;;;;;-2.26;100.00;101330.88;5003979;28;19971;-80
2023/12/02 08:46:50;;;;;;;;;;;;;;;-2.21;100.00;101322.91;5005208;28;20800;-80
2023/12/02 08:49:15;;;;;;;;;;;;;;;-2.19;100.00;101335.13;5000013;28;20279;-80
2023/12/02 08:51:40;;;;;;;;;;;;;;;-2.17;100.00;101335.97;5001347;28;19963;-80
2023/12/02 08:54:05;;;;;;;;;;;;;;;-2.16;100.00;101339.47;5001502;28;19917;-80
2023/12/02 08:56:31;;;;;;;;;;;;;;;-2.08;100.00;101344.59;4986741;28;20482;-80
2023/12/02 08:58:56;;;;;;;;;;;;;;;-2.06;100.00;101338.41;4995886;28;19921;-79
2023/12/02 09:01:22;;;;;;;;;;;;;;;-2.08;100.00;101341.97;4990366;28;19964;-80
2023/12/02 09:03:47;;;;;;;;;;;;;;;-2.07;100.00;101347.19;4993085;28;20015;-79
2023/12/02 09:06:12;;;;;;;;;;;;;;;-2.15;100.00;101346.47;4987831;28;19976;-80
2023/12/02 09:08:37;;;;;;;;;;;;;;;-2.16;100.00;101342.13;5004870;28;20385;-80
2023/12/02 09:11:04;;;;;;;;;;;;;;;-2.18;100.00;101344.75;4992722;28;20381;-80
2023/12/02 09:13:32;;;;;;;;;;;;;;;-1.93;100.00;101356.63;5011283;28;19928;-79
2023/12/02 09:15:57;;;;;;;;;;;;;;;-1.45;100.00;101359.25;5011674;28;19928;-80
2023/12/02 09:18:49;;;;;;;;;;;;;;;-1.09;100.00;101355.91;5013051;28;19929;-80
2023/12/02 09:21:17;;;;;;;;;;;;;;;-0.56;100.00;101354.75;5008539;28;19968;-79
2023/12/02 09:23:42;;;;;;;;;;;;;;;-0.03;100.00;101357.88;4999472;28;19944;-80
2023/12/02 09:26:23;;;;;;;;;;;;;;;0.55;100.00;101361.66;4994070;28;19956;-81
2023/12/02 09:28:48;;;;;;;;;;;;;;;1.00;100.00;101358.63;5009270;28;20244;-80
2023/12/02 09:31:14;;;;;;;;;;;;;;;1.46;100.00;101351.03;4993511;28;19964;-81
2023/12/02 09:33:39;;;;;;;;;;;;;;;2.12;100.00;101355.09;5006740;28;19969;-81
2023/12/02 09:36:04;;;;;;;;;;;;;;;2.07;100.00;101352.63;4993704;28;20326;-82
2023/12/02 09:38:29;;;;;;;;;;;;;;;2.28;100.00;101354.59;5006171;28;19921;-80
2023/12/02 09:41:02;;;;;;;;;;;;;;;2.58;100.00;101355.28;4993838;28;19940;-82
2023/12/02 09:43:31;;;;;;;;;;;;;;;2.16;100.00;101354.06;5005884;28;19927;-80
2023/12/02 09:46:06;;;;;;;;;;;;;;;1.89;100.00;101364.69;5008301;28;19925;-79
2023/12/02 09:48:34;;;;;;;;;;;;;;;2.14;100.00;101365.66;4991595;28;20318;-81
2023/12/02 09:51:16;;;;;;;;;;;;;;;2.98;100.00;101377.69;5006736;28;19921;-81
2023/12/02 09:53:47;;;;;;;;;;;;;;;3.95;100.00;101382.78;5007343;28;19929;-81
2023/12/02 09:56:19;;;;;;;;;;;;;;;4.30;100.00;101374.25;5008268;28;19925;-80
2023/12/02 09:58:44;;;;;;;;;;;;;;;4.85;100.00;101380.72;4997488;28;19929;-82
2023/12/02 10:01:13;;;;;;;;;;;;;;;4.98;100.00;101379.22;4992191;28;19921;-79
2023/12/02 10:03:44;;;;;;;;;;;;;;;4.12;100.00;101379.41;5015784;28;19921;-81
2023/12/02 10:06:28;;;;;;;;;;;;;;;3.11;100.00;101383.41;5009777;28;20093;-80
2023/12/02 10:08:53;;;;;;;;;;;;;;;2.72;100.00;101386.59;5016483;28;19928;-79
2023/12/02 10:11:28;;;;;;;;;;;;;;;2.29;100.00;101388.97;5011437;28;20358;-79
2023/12/02 10:13:54;;;;;;;;;;;;;;;1.97;100.00;101387.41;5013097;28;19929;-80
2023/12/02 10:16:20;;;;;;;;;;;;;;;1.60;100.00;101387.66;5011154;28;19917;-81
2023/12/02 10:18:52;;;;;;;;;;;;;;;1.55;100.00;101386.97;4995602;28;20429;-81
2023/12/02 10:21:18;;;;;;;;;;;;;;;1.48;100.00;101394.22;4996516;28;20005;-81
2023/12/02 10:23:50;;;;;;;;;;;;;;;1.71;100.00;101392.66;5011836;28;20404;-81
2023/12/02 10:26:18;;;;;;;;;;;;;;;2.59;100.00;101385.31;5010748;28;19932;-81
2023/12/02 10:28:44;;;;;;;;;;;;;;;3.61;100.00;101384.16;5010280;28;20036;-81
2023/12/02 10:31:09;;;;;;;;;;;;;;;3.99;100.00;101384.34;5013715;28;19932;-80
2023/12/02 10:33:35;;;;;;;;;;;;;;;3.56;100.00;101376.38;5014442;28;19921;-81
2023/12/02 10:36:02;;;;;;;;;;;;;;;3.81;100.00;101388.66;4990173;28;19921;-81
2023/12/02 10:38:32;;;;;;;;;;;;;;;3.11;100.00;101372.78;5013523;28;19925;-81
2023/12/02 10:41:01;;;;;;;;;;;;;;;3.33;100.00;101373.72;4996905;28;19971;-81
2023/12/02 10:43:31;;;;;;;;;;;;;;;3.58;100.00;101368.34;5014067;28;20117;-83
2023/12/02 10:45:56;;;;;;;;;;;;;;;3.49;100.00;101368.69;5017754;28;19929;-81
2023/12/02 10:48:22;;;;;;;;;;;;;;;4.08;100.00;101369.84;5005887;28;19944;-82
2023/12/02 10:50:47;;;;;;;;;;;;;;;4.66;100.00;101370.91;5015925;28;19921;-83
2023/12/02 10:53:12;;;;;;;;;;;;;;;5.65;100.00;101354.81;5014105;28;19956;-81
2023/12/02 10:55:37;;;;;;;;;;;;;;;6.55;95.67;101359.19;5014286;28;20004;-81
2023/12/02 10:58:03;;;;;;;;;;;;;;;6.94;90.91;101353.63;5013718;28;20939;-80
2023/12/02 11:00:29;;;;;;;;;;;;;;;6.90;87.87;101345.78;5018580;28;19917;-80
2023/12/02 11:03:01;;;;;;;;;;;;;;;6.49;88.87;101348.81;5014184;28;19943;-82
2023/12/02 11:05:28;;;;;;;;;;;;;;;6.10;87.33;101356.13;5010170;28;20001;-84
2023/12/02 11:07:54;;;;;;;;;;;;;;;6.42;87.46;101356.28;5011193;28;20330;-79
2023/12/02 11:10:32;;;;;;;;;;;;;;;6.24;88.63;101350.09;5009048;28;19953;-83
2023/12/02 11:13:00;;;;;;;;;;;;;;;6.95;89.38;101345.50;5025972;28;19925;-82
2023/12/02 11:15:25;;;;;;;;;;;;;;;6.57;83.90;101346.63;4994158;28;19925;-82
2023/12/02 11:18:03;;;;;;;;;;;;;;;7.44;84.15;101338.38;4994105;28;20245;-82
2023/12/02 11:20:49;;;;;;;;;;;;;;;7.12;82.00;101349.94;5008904;28;20054;-84
2023/12/02 11:23:32;;;;;;;;;;;;;;;6.63;84.62;101349.91;5005080;28;20005;-82
2023/12/02 11:26:02;;;;;;;;;;;;;;;5.85;86.65;101351.16;5007581;28;19987;-81
2023/12/02 11:28:32;;;;;;;;;;;;;;;6.17;90.80;101351.38;5008540;28;20043;-82
2023/12/02 11:30:57;;;;;;;;;;;;;;;5.73;88.27;101354.44;5007397;28;19932;-82
2023/12/02 11:33:46;;;;;;;;;;;;;;;5.19;94.83;101358.75;5003750;28;20073;-81
2023/12/02 11:36:16;;;;;;;;;;;;;;;5.27;92.57;101363.69;5008064;28;19924;-82
2023/12/02 11:38:49;;;;;;;;;;;;;;;5.68;92.61;101366.19;5005340;28;19920;-83
2023/12/02 11:41:24;;;;;;;;;;;;;;;4.86;94.59;101367.34;5009101;28;20327;-84
2023/12/02 11:43:58;;;;;;;;;;;;;;;4.83;96.05;101369.28;5004112;28;19921;-83
2023/12/02 11:46:25;;;;;;;;;;;;;;;4.68;99.55;101369.03;5012549;28;20711;-81
2023/12/02 11:48:53;;;;;;;;;;;;;;;3.93;100.00;101366.03;4997490;28;19925;-83
2023/12/02 11:51:35;;;;;;;;;;;;;;;3.06;100.00;101369.44;5010388;28;19925;-83
2023/12/02 11:54:09;;;;;;;;;;;;;;;2.60;100.00;101371.13;5007355;28;19933;-83
2023/12/02 11:56:35;;;;;;;;;;;;;;;2.91;100.00;101364.72;5012116;28;20245;-80
2023/12/02 11:59:15;;;;;;;;;;;;;;;2.90;100.00;101369.16;5006318;28;19928;-80
2023/12/02 12:01:43;;;;;;;;;;;;;;;3.34;100.00;101364.84;4995347;28;19913;-83
2023/12/02 12:04:27;;;;;;;;;;;;;;;2.93;100.00;101365.50;5007003;28;19936;-82
2023/12/02 12:07:11;;;;;;;;;;;;;;;3.42;100.00;101371.59;5008582;28;19932;-80
2023/12/02 12:10:03;;;;;;;;;;;;;;;3.55;100.00;101360.47;5007838;28;19931;-80
2023/12/02 12:12:29;;;;;;;;;;;;;;;2.95;100.00;101371.63;5007325;28;19953;-81
2023/12/02 12:14:54;;;;;;;;;;;;;;;2.96;100.00;101371.56;4992822;28;19921;-81
2023/12/02 12:17:19;;;;;;;;;;;;;;;3.12;100.00;101378.94;5010368;28;19931;-80
2023/12/02 12:19:47;;;;;;;;;;;;;;;2.77;100.00;101376.69;5004387;28;19924;-82
2023/12/02 12:22:12;;;;;;;;;;;;;;;2.64;100.00;101388.69;5006029;28;19925;-80
2023/12/02 12:24:38;;;;;;;;;;;;;;;2.61;100.00;101380.81;4995150;28;20057;-81
2023/12/02 12:27:03;;;;;;;;;;;;;;;2.64;100.00;101378.91;5013859;28;19973;-81